createdAt,value
2018-03-04T00:00:04.136Z,94096
2018-03-04T00:00:36.181Z,94096
2018-03-04T00:01:08.220Z,94097
2018-03-04T00:01:40.260Z,94102
2018-03-04T00:02:12.298Z,94100
2018-03-04T00:02:45.093Z,94100
2018-03-04T00:03:17.124Z,94102
2018-03-04T00:03:49.180Z,94102
2018-03-04T00:04:21.221Z,94102
2018-03-04T00:04:54.015Z,94102
2018-03-04T00:05:26.041Z,94100
2018-03-04T00:05:58.851Z,94103
2018-03-04T00:06:30.876Z,94100
2018-03-04T00:07:02.914Z,94104
2018-03-04T00:07:35.728Z,94102
2018-03-04T00:08:07.759Z,94103
2018-03-04T00:08:39.834Z,94100
2018-03-04T00:09:11.859Z,94105
2018-03-04T00:09:43.906Z,94105
2018-03-04T00:10:16.680Z,94104
2018-03-04T00:10:48.717Z,94106
2018-03-04T00:11:20.780Z,94103
2018-03-04T00:11:53.020Z,94111
2018-03-04T00:12:25.267Z,94108
2018-03-04T00:12:57.378Z,94110
2018-03-04T00:13:29.671Z,94106
2018-03-04T00:14:01.788Z,94106
2018-03-04T00:14:33.901Z,94104
2018-03-04T00:15:06.025Z,94103
2018-03-04T00:15:38.179Z,94107
2018-03-04T00:16:11.089Z,94111
2018-03-04T00:16:43.940Z,94106
2018-03-04T00:17:15.946Z,94109
2018-03-04T00:17:47.970Z,94108
2018-03-04T00:18:19.989Z,94110
2018-03-04T00:18:52.794Z,94107
2018-03-04T00:19:24.820Z,94113
2018-03-04T00:19:56.873Z,94109
2018-03-04T00:20:29.674Z,94106
2018-03-04T00:21:01.715Z,94108
2018-03-04T00:21:33.741Z,94110
2018-03-04T00:22:05.790Z,94109
2018-03-04T00:22:37.832Z,94107
2018-03-04T00:23:10.628Z,94107
2018-03-04T00:23:42.661Z,94109
2018-03-04T00:24:15.474Z,94107
2018-03-04T00:24:47.514Z,94108
2018-03-04T00:25:19.542Z,94115
2018-03-04T00:25:51.614Z,94111
2018-03-04T00:26:24.386Z,94110
2018-03-04T00:26:56.437Z,94106
2018-03-04T00:27:28.464Z,94110
2018-03-04T00:28:01.263Z,94116
2018-03-04T00:28:33.298Z,94112
2018-03-04T00:29:05.312Z,94110
2018-03-04T00:29:38.121Z,94115
2018-03-04T00:30:10.144Z,94107
2018-03-04T00:30:42.947Z,94112
2018-03-04T00:31:14.986Z,94108
2018-03-04T00:31:47.013Z,94108
2018-03-04T00:32:19.817Z,94112
2018-03-04T00:32:51.846Z,94118
2018-03-04T00:33:23.891Z,94115
2018-03-04T00:33:56.686Z,94110
2018-03-04T00:34:28.732Z,94118
2018-03-04T00:35:00.765Z,94112
2018-03-04T00:35:33.576Z,94115
2018-03-04T00:36:05.611Z,94116
2018-03-04T00:36:37.652Z,94119
2018-03-04T00:37:09.705Z,94118
2018-03-04T00:37:41.734Z,94119
2018-03-04T00:38:14.544Z,94118
2018-03-04T00:38:46.594Z,94115
2018-03-04T00:39:18.614Z,94119
2018-03-04T00:39:50.663Z,94120
2018-03-04T00:40:23.478Z,94119
2018-03-04T00:40:55.555Z,94119
2018-03-04T00:41:27.570Z,94113
2018-03-04T00:41:59.602Z,94112
2018-03-04T00:42:31.676Z,94118
2018-03-04T00:43:03.752Z,94112
2018-03-04T00:43:35.780Z,94114
2018-03-04T00:44:07.811Z,94117
2018-03-04T00:44:39.877Z,94110
2018-03-04T00:45:11.916Z,94116
2018-03-04T00:45:43.989Z,94111
2018-03-04T00:46:16.082Z,94113
2018-03-04T00:47:25.767Z,94116
2018-03-04T00:47:57.803Z,94119
2018-03-04T00:48:29.822Z,94117
2018-03-04T00:49:02.652Z,94117
2018-03-04T00:49:34.668Z,94121
2018-03-04T00:50:06.720Z,94118
2018-03-04T00:50:38.733Z,94119
2018-03-04T00:51:10.752Z,94117
2018-03-04T00:51:42.781Z,94118
2018-03-04T00:52:18.134Z,94117
2018-03-04T00:52:50.181Z,94116
2018-03-04T00:53:22.228Z,94118
2018-03-04T00:53:54.246Z,94116
2018-03-04T00:54:26.284Z,94119
2018-03-04T00:54:59.089Z,94118
2018-03-04T00:55:31.113Z,94122
2018-03-04T00:56:03.230Z,94121
2018-03-04T00:56:35.261Z,94118
2018-03-04T00:57:07.290Z,94121
2018-03-04T00:57:39.319Z,94124
2018-03-04T00:58:11.357Z,94124
2018-03-04T00:58:44.154Z,94126
2018-03-04T00:59:16.180Z,94124
2018-03-04T00:59:48.977Z,94125
2018-03-04T01:00:21.017Z,94129
2018-03-04T01:00:53.091Z,94132
2018-03-04T01:01:25.104Z,94139
2018-03-04T01:01:57.903Z,94133
2018-03-04T01:02:29.934Z,94133
2018-03-04T01:03:02.742Z,94139
2018-03-04T01:03:34.790Z,94136
2018-03-04T01:04:06.890Z,94133
2018-03-04T01:04:38.922Z,94132
2018-03-04T01:05:10.951Z,94131
2018-03-04T01:05:42.997Z,94129
2018-03-04T01:06:15.050Z,94133
2018-03-04T01:06:47.080Z,94137
2018-03-04T01:07:19.112Z,94135
2018-03-04T01:07:51.890Z,94140
2018-03-04T01:08:23.932Z,94136
2018-03-04T01:08:56.717Z,94133
2018-03-04T01:09:28.740Z,94141
2018-03-04T01:10:01.539Z,94141
2018-03-04T01:10:33.570Z,94139
2018-03-04T01:11:06.393Z,94143
2018-03-04T01:11:38.412Z,94139
2018-03-04T01:12:10.444Z,94143
2018-03-04T01:12:43.231Z,94138
2018-03-04T01:13:15.270Z,94142
2018-03-04T01:13:47.293Z,94137
2018-03-04T01:14:19.329Z,94138
2018-03-04T01:14:51.368Z,94143
2018-03-04T01:15:23.388Z,94139
2018-03-04T01:15:55.418Z,94145
2018-03-04T01:16:28.208Z,94144
2018-03-04T01:17:00.239Z,94142
2018-03-04T01:17:32.292Z,94142
2018-03-04T01:18:05.086Z,94141
2018-03-04T01:18:37.116Z,94143
2018-03-04T01:19:09.901Z,94140
2018-03-04T01:19:41.939Z,94142
2018-03-04T01:20:51.878Z,94145
2018-03-04T01:21:23.912Z,94145
2018-03-04T01:21:56.698Z,94146
2018-03-04T01:22:28.732Z,94145
2018-03-04T01:23:01.520Z,94145
2018-03-04T01:23:33.544Z,94147
2018-03-04T01:24:06.341Z,94147
2018-03-04T01:24:38.395Z,94149
2018-03-04T01:25:10.427Z,94148
2018-03-04T01:25:43.227Z,94149
2018-03-04T01:26:15.256Z,94152
2018-03-04T01:26:48.039Z,94150
2018-03-04T01:27:20.052Z,94148
2018-03-04T01:27:52.846Z,94149
2018-03-04T01:28:24.908Z,94145
2018-03-04T01:29:00.368Z,94144
2018-03-04T01:29:32.397Z,94149
2018-03-04T01:30:04.413Z,94147
2018-03-04T01:30:37.211Z,94146
2018-03-04T01:31:09.245Z,94145
2018-03-04T01:31:42.037Z,94149
2018-03-04T01:32:14.056Z,94149
2018-03-04T01:32:46.071Z,94146
2018-03-04T01:33:18.097Z,94145
2018-03-04T01:33:50.116Z,94144
2018-03-04T01:34:22.970Z,94148
2018-03-04T01:34:55.006Z,94150
2018-03-04T01:35:27.039Z,94146
2018-03-04T01:35:59.056Z,94148
2018-03-04T01:36:31.064Z,94146
2018-03-04T01:37:03.106Z,94150
2018-03-04T01:37:35.138Z,94150
2018-03-04T01:38:07.154Z,94150
2018-03-04T01:38:39.176Z,94147
2018-03-04T01:39:11.195Z,94154
2018-03-04T01:39:43.225Z,94148
2018-03-04T01:40:15.264Z,94148
2018-03-04T01:40:50.523Z,94147
2018-03-04T01:41:22.541Z,94147
2018-03-04T01:41:54.586Z,94153
2018-03-04T01:42:26.612Z,94153
2018-03-04T01:42:58.647Z,94149
2018-03-04T01:43:30.691Z,94147
2018-03-04T01:44:02.718Z,94152
2018-03-04T01:44:34.747Z,94152
2018-03-04T01:45:06.802Z,94154
2018-03-04T01:45:38.836Z,94150
2018-03-04T01:46:11.633Z,94148
2018-03-04T01:46:43.649Z,94154
2018-03-04T01:47:15.721Z,94153
2018-03-04T01:47:47.747Z,94153
2018-03-04T01:48:19.772Z,94152
2018-03-04T01:48:51.801Z,94155
2018-03-04T01:49:24.603Z,94154
2018-03-04T01:49:56.640Z,94152
2018-03-04T01:50:31.995Z,94153
2018-03-04T01:51:04.029Z,94153
2018-03-04T01:51:36.065Z,94152
2018-03-04T01:52:08.110Z,94151
2018-03-04T01:52:40.138Z,94148
2018-03-04T01:53:12.182Z,94154
2018-03-04T01:53:44.225Z,94151
2018-03-04T01:54:16.271Z,94154
2018-03-04T01:54:48.318Z,94152
2018-03-04T01:55:20.351Z,94153
2018-03-04T01:55:53.162Z,94153
2018-03-04T01:56:25.201Z,94155
2018-03-04T01:56:57.230Z,94156
2018-03-04T01:57:30.020Z,94151
2018-03-04T01:58:02.088Z,94155
2018-03-04T01:58:34.128Z,94156
2018-03-04T01:59:06.162Z,94156
2018-03-04T01:59:38.213Z,94156
2018-03-04T02:00:10.242Z,94158
2018-03-04T02:00:43.041Z,94157
2018-03-04T02:01:15.077Z,94158
2018-03-04T02:01:47.136Z,94157
2018-03-04T02:02:19.192Z,94159
2018-03-04T02:02:51.208Z,94159
2018-03-04T02:03:23.244Z,94160
2018-03-04T02:03:55.281Z,94159
2018-03-04T02:04:27.305Z,94157
2018-03-04T02:04:59.337Z,94164
2018-03-04T02:05:32.121Z,94160
2018-03-04T02:06:04.148Z,94161
2018-03-04T02:06:36.932Z,94163
2018-03-04T02:07:08.964Z,94163
2018-03-04T02:07:41.771Z,94162
2018-03-04T02:08:13.808Z,94166
2018-03-04T02:08:45.848Z,94167
2018-03-04T02:09:17.881Z,94163
2018-03-04T02:09:50.722Z,94161
2018-03-04T02:10:22.726Z,94165
2018-03-04T02:10:54.764Z,94169
2018-03-04T02:11:27.557Z,94169
2018-03-04T02:11:59.574Z,94170
2018-03-04T02:12:32.391Z,94170
2018-03-04T02:13:04.410Z,94169
2018-03-04T02:13:36.452Z,94171
2018-03-04T02:14:09.241Z,94168
2018-03-04T02:14:41.264Z,94174
2018-03-04T02:15:14.077Z,94168
2018-03-04T02:15:46.106Z,94174
2018-03-04T02:16:18.141Z,94172
2018-03-04T02:16:50.925Z,94172
2018-03-04T02:17:22.972Z,94171
2018-03-04T02:17:55.769Z,94168
2018-03-04T02:18:27.792Z,94167
2018-03-04T02:18:59.828Z,94163
2018-03-04T02:19:32.615Z,94161
2018-03-04T02:20:04.648Z,94172
2018-03-04T02:20:37.477Z,94167
2018-03-04T02:21:09.506Z,94165
2018-03-04T02:21:41.525Z,94160
2018-03-04T02:22:14.330Z,94166
2018-03-04T02:22:46.338Z,94168
2018-03-04T02:23:19.140Z,94172
2018-03-04T02:23:51.164Z,94161
2018-03-04T02:24:23.983Z,94168
2018-03-04T02:24:56.010Z,94162
2018-03-04T02:25:28.036Z,94172
2018-03-04T02:26:00.813Z,94165
2018-03-04T02:26:32.849Z,94165
2018-03-04T02:27:05.651Z,94166
2018-03-04T02:27:37.682Z,94165
2018-03-04T02:28:10.487Z,94165
2018-03-04T02:28:42.545Z,94170
2018-03-04T02:29:14.578Z,94170
2018-03-04T02:29:46.619Z,94164
2018-03-04T02:30:18.637Z,94166
2018-03-04T02:30:51.457Z,94164
2018-03-04T02:31:23.490Z,94165
2018-03-04T02:31:55.504Z,94168
2018-03-04T02:32:27.596Z,94166
2018-03-04T02:32:59.616Z,94166
2018-03-04T02:33:31.646Z,94163
2018-03-04T02:34:03.678Z,94165
2018-03-04T02:34:35.738Z,94169
2018-03-04T02:35:07.772Z,94167
2018-03-04T02:35:39.796Z,94173
2018-03-04T02:36:11.819Z,94170
2018-03-04T02:36:43.884Z,94174
2018-03-04T02:37:15.892Z,94169
2018-03-04T02:37:47.925Z,94167
2018-03-04T02:38:19.952Z,94168
2018-03-04T02:38:51.982Z,94170
2018-03-04T02:39:24.769Z,94169
2018-03-04T02:39:56.812Z,94169
2018-03-04T02:40:29.638Z,94174
2018-03-04T02:41:01.660Z,94169
2018-03-04T02:41:33.685Z,94170
2018-03-04T02:42:05.737Z,94167
2018-03-04T02:42:37.788Z,94176
2018-03-04T02:43:10.580Z,94171
2018-03-04T02:43:42.598Z,94172
2018-03-04T02:44:14.669Z,94171
2018-03-04T02:44:46.706Z,94174
2018-03-04T02:45:20.317Z,94173
2018-03-04T02:45:54.336Z,94179
2018-03-04T02:46:29.434Z,94174
2018-03-04T02:47:08.442Z,94172
2018-03-04T02:47:45.215Z,94175
2018-03-04T02:48:29.651Z,94171
2018-03-04T02:49:18.806Z,94175
2018-03-04T02:49:55.769Z,94178
2018-03-04T02:51:13.165Z,94176
2018-03-04T02:51:45.532Z,94173
2018-03-04T02:52:17.999Z,94175
2018-03-04T02:52:50.306Z,94175
2018-03-04T02:53:23.854Z,94177
2018-03-04T02:53:58.671Z,94175
2018-03-04T02:54:30.936Z,94175
2018-03-04T02:55:03.221Z,94173
2018-03-04T02:55:35.540Z,94169
2018-03-04T02:56:14.521Z,94168
2018-03-04T02:56:48.366Z,94171
2018-03-04T02:57:20.692Z,94174
2018-03-04T02:57:53.683Z,94172
2018-03-04T02:58:26.038Z,94173
2018-03-04T02:59:00.658Z,94169
2018-03-04T02:59:32.907Z,94168
2018-03-04T03:00:06.185Z,94172
2018-03-04T03:00:39.576Z,94172
2018-03-04T03:01:11.927Z,94168
2018-03-04T03:01:44.720Z,94176
2018-03-04T03:02:19.909Z,94173
2018-03-04T03:02:53.408Z,94172
2018-03-04T03:03:25.749Z,94173
2018-03-04T03:03:58.530Z,94173
2018-03-04T03:04:30.986Z,94173
2018-03-04T03:05:03.342Z,94172
2018-03-04T03:05:36.622Z,94176
2018-03-04T03:06:08.877Z,94173
2018-03-04T03:06:41.951Z,94181
2018-03-04T03:07:15.007Z,94176
2018-03-04T03:07:47.284Z,94177
2018-03-04T03:08:20.822Z,94179
2018-03-04T03:08:53.850Z,94180
2018-03-04T03:09:27.792Z,94173
2018-03-04T03:10:01.606Z,94174
2018-03-04T03:10:34.658Z,94177
2018-03-04T03:11:10.042Z,94178
2018-03-04T03:11:42.614Z,94180
2018-03-04T03:12:16.619Z,94181
2018-03-04T03:12:48.856Z,94177
2018-03-04T03:13:22.564Z,94176
2018-03-04T03:13:55.438Z,94170
2018-03-04T03:14:30.040Z,94174
2018-03-04T03:15:04.320Z,94173
2018-03-04T03:15:37.700Z,94173
2018-03-04T03:16:11.834Z,94172
2018-03-04T03:16:45.618Z,94174
2018-03-04T03:17:18.795Z,94176
2018-03-04T03:17:57.195Z,94178
2018-03-04T03:18:31.669Z,94177
2018-03-04T03:19:03.992Z,94176
2018-03-04T03:19:37.076Z,94180
2018-03-04T03:20:10.960Z,94173
2018-03-04T03:20:44.010Z,94176
2018-03-04T03:21:16.264Z,94173
2018-03-04T03:21:48.567Z,94177
2018-03-04T03:22:23.012Z,94171
2018-03-04T03:22:58.121Z,94184
2018-03-04T03:23:32.438Z,94179
2018-03-04T03:24:05.361Z,94178
2018-03-04T03:24:41.073Z,94179
2018-03-04T03:25:13.949Z,94181
2018-03-04T03:25:50.249Z,94179
2018-03-04T03:26:23.888Z,94181
2018-03-04T03:26:56.133Z,94184
2018-03-04T03:27:29.260Z,94184
2018-03-04T03:28:01.572Z,94184
2018-03-04T03:28:34.581Z,94181
2018-03-04T03:29:06.924Z,94184
2018-03-04T03:29:39.221Z,94183
2018-03-04T03:30:11.424Z,94182
2018-03-04T03:30:43.712Z,94178
2018-03-04T03:31:16.969Z,94184
2018-03-04T03:31:51.350Z,94179
2018-03-04T03:32:25.249Z,94180
2018-03-04T03:32:58.119Z,94182
2018-03-04T03:33:30.464Z,94184
2018-03-04T03:34:03.644Z,94179
2018-03-04T03:34:37.345Z,94181
2018-03-04T03:35:11.099Z,94177
2018-03-04T03:35:43.583Z,94176
2018-03-04T03:36:16.058Z,94179
2018-03-04T03:36:50.657Z,94171
2018-03-04T03:37:25.693Z,94172
2018-03-04T03:37:58.521Z,94172
2018-03-04T03:38:30.918Z,94172
2018-03-04T03:39:05.616Z,94170
2018-03-04T03:39:41.459Z,94168
2018-03-04T03:40:14.522Z,94172
2018-03-04T03:40:47.557Z,94169
2018-03-04T03:41:19.780Z,94168
2018-03-04T03:41:54.250Z,94170
2018-03-04T03:42:30.640Z,94165
2018-03-04T03:43:04.791Z,94169
2018-03-04T03:43:37.102Z,94170
2018-03-04T03:44:11.102Z,94167
2018-03-04T03:44:43.378Z,94164
2018-03-04T03:45:15.669Z,94162
2018-03-04T03:45:47.969Z,94165
2018-03-04T03:46:20.224Z,94165
2018-03-04T03:46:52.813Z,94162
2018-03-04T03:47:25.133Z,94161
2018-03-04T03:47:58.465Z,94164
2018-03-04T03:48:30.702Z,94162
2018-03-04T03:49:03.796Z,94163
2018-03-04T03:49:37.450Z,94159
2018-03-04T03:50:09.754Z,94157
2018-03-04T03:50:42.047Z,94159
2018-03-04T03:51:15.138Z,94153
2018-03-04T03:51:51.475Z,94153
2018-03-04T03:52:23.737Z,94154
2018-03-04T03:52:59.372Z,94156
2018-03-04T03:53:32.203Z,94156
2018-03-04T03:54:06.556Z,94155
2018-03-04T03:54:42.043Z,94155
2018-03-04T03:55:20.011Z,94154
2018-03-04T03:56:31.171Z,94154
2018-03-04T03:57:05.270Z,94151
2018-03-04T03:57:38.307Z,94153
2018-03-04T03:58:10.500Z,94148
2018-03-04T03:58:44.699Z,94157
2018-03-04T03:59:18.732Z,94153
2018-03-04T03:59:51.077Z,94153
2018-03-04T04:00:24.110Z,94154
2018-03-04T04:01:36.859Z,94149
2018-03-04T04:02:09.439Z,94154
2018-03-04T04:02:41.663Z,94151
2018-03-04T04:03:13.920Z,94156
2018-03-04T04:03:48.013Z,94156
2018-03-04T04:04:22.454Z,94157
2018-03-04T04:04:55.794Z,94154
2018-03-04T04:05:28.778Z,94158
2018-03-04T04:06:04.279Z,94162
2018-03-04T04:06:36.486Z,94155
2018-03-04T04:07:09.511Z,94159
2018-03-04T04:07:42.984Z,94160
2018-03-04T04:08:17.370Z,94163
2018-03-04T04:08:50.428Z,94158
2018-03-04T04:09:24.466Z,94158
2018-03-04T04:09:56.819Z,94162
2018-03-04T04:10:29.262Z,94161
2018-03-04T04:11:01.637Z,94160
2018-03-04T04:11:33.910Z,94159
2018-03-04T04:12:07.383Z,94160
2018-03-04T04:12:39.670Z,94162
2018-03-04T04:13:12.723Z,94158
2018-03-04T04:13:45.960Z,94160
2018-03-04T04:14:19.139Z,94155
2018-03-04T04:14:51.445Z,94156
2018-03-04T04:15:25.701Z,94157
2018-03-04T04:15:59.552Z,94156
2018-03-04T04:16:33.094Z,94151
2018-03-04T04:17:06.242Z,94150
2018-03-04T04:17:39.581Z,94152
2018-03-04T04:18:11.837Z,94158
2018-03-04T04:18:44.848Z,94153
2018-03-04T04:19:17.064Z,94154
2018-03-04T04:19:51.444Z,94149
2018-03-04T04:20:24.008Z,94153
2018-03-04T04:20:56.286Z,94149
2018-03-04T04:21:30.864Z,94148
2018-03-04T04:22:03.690Z,94149
2018-03-04T04:22:35.981Z,94149
2018-03-04T04:23:09.017Z,94147
2018-03-04T04:23:42.299Z,94145
2018-03-04T04:24:15.514Z,94145
2018-03-04T04:24:49.375Z,94151
2018-03-04T04:25:21.678Z,94148
2018-03-04T04:25:56.724Z,94151
2018-03-04T04:26:29.057Z,94149
2018-03-04T04:27:02.867Z,94148
2018-03-04T04:27:35.938Z,94148
2018-03-04T04:28:08.195Z,94149
2018-03-04T04:28:41.344Z,94153
2018-03-04T04:29:15.268Z,94154
2018-03-04T04:29:50.968Z,94158
2018-03-04T04:30:24.885Z,94156
2018-03-04T04:30:59.424Z,94154
2018-03-04T04:31:31.862Z,94156
2018-03-04T04:32:08.956Z,94157
2018-03-04T04:32:41.267Z,94155
2018-03-04T04:33:14.329Z,94154
2018-03-04T04:33:47.565Z,94152
2018-03-04T04:34:22.193Z,94152
2018-03-04T04:34:55.262Z,94157
2018-03-04T04:35:27.612Z,94154
2018-03-04T04:36:08.469Z,94154
2018-03-04T04:36:40.821Z,94156
2018-03-04T04:37:13.084Z,94156
2018-03-04T04:37:46.973Z,94152
2018-03-04T04:38:19.841Z,94155
2018-03-04T04:38:53.991Z,94152
2018-03-04T04:39:27.224Z,94151
2018-03-04T04:40:03.882Z,94155
2018-03-04T04:40:36.881Z,94152
2018-03-04T04:41:09.428Z,94151
2018-03-04T04:42:21.713Z,94146
2018-03-04T04:42:57.597Z,94149
2018-03-04T04:43:31.859Z,94146
2018-03-04T04:44:04.729Z,94151
2018-03-04T04:44:37.399Z,94149
2018-03-04T04:45:11.710Z,94148
2018-03-04T04:45:43.894Z,94148
2018-03-04T04:46:17.527Z,94147
2018-03-04T04:46:50.454Z,94152
2018-03-04T04:47:23.697Z,94152
2018-03-04T04:47:57.696Z,94150
2018-03-04T04:48:29.952Z,94151
2018-03-04T04:49:05.089Z,94145
2018-03-04T04:49:37.431Z,94148
2018-03-04T04:50:09.699Z,94144
2018-03-04T04:50:42.667Z,94147
2018-03-04T04:51:15.742Z,94149
2018-03-04T04:51:48.920Z,94146
2018-03-04T04:52:21.996Z,94143
2018-03-04T04:52:55.775Z,94146
2018-03-04T04:53:29.578Z,94139
2018-03-04T04:54:03.463Z,94142
2018-03-04T04:54:36.650Z,94144
2018-03-04T04:55:09.008Z,94139
2018-03-04T04:55:48.539Z,94141
2018-03-04T04:56:23.561Z,94140
2018-03-04T04:56:57.248Z,94136
2018-03-04T04:57:30.628Z,94141
2018-03-04T04:58:05.023Z,94142
2018-03-04T04:58:38.520Z,94142
2018-03-04T04:59:11.520Z,94140
2018-03-04T04:59:43.958Z,94136
2018-03-04T05:00:17.035Z,94130
2018-03-04T05:00:50.417Z,94137
2018-03-04T05:02:00.352Z,94131
2018-03-04T05:02:32.815Z,94129
2018-03-04T05:03:09.370Z,94129
2018-03-04T05:03:42.444Z,94135
2018-03-04T05:05:03.661Z,94132
2018-03-04T05:05:37.752Z,94133
2018-03-04T05:06:12.158Z,94130
2018-03-04T05:06:46.053Z,94136
2018-03-04T05:07:19.345Z,94138
2018-03-04T05:07:52.304Z,94136
2018-03-04T05:08:26.303Z,94137
2018-03-04T05:08:59.686Z,94130
2018-03-04T05:09:33.272Z,94139
2018-03-04T05:10:05.948Z,94134
2018-03-04T05:10:38.515Z,94133
2018-03-04T05:11:11.374Z,94134
2018-03-04T05:11:44.959Z,94136
2018-03-04T05:12:17.626Z,94134
2018-03-04T05:12:50.094Z,94129
2018-03-04T05:13:22.753Z,94132
2018-03-04T05:13:55.930Z,94133
2018-03-04T05:14:31.362Z,94136
2018-03-04T05:15:04.648Z,94136
2018-03-04T05:15:37.718Z,94137
2018-03-04T05:16:11.305Z,94137
2018-03-04T05:16:44.586Z,94140
2018-03-04T05:17:17.158Z,94138
2018-03-04T05:17:50.635Z,94134
2018-03-04T05:18:24.631Z,94136
2018-03-04T05:18:58.116Z,94134
2018-03-04T05:19:30.580Z,94133
2018-03-04T05:20:03.042Z,94135
2018-03-04T05:20:37.657Z,94138
2018-03-04T05:21:10.109Z,94137
2018-03-04T05:21:42.574Z,94138
2018-03-04T05:22:15.033Z,94138
2018-03-04T05:22:47.492Z,94135
2018-03-04T05:23:21.086Z,94138
2018-03-04T05:23:54.872Z,94138
2018-03-04T05:24:28.157Z,94134
2018-03-04T05:25:00.598Z,94133
2018-03-04T05:25:33.081Z,94130
2018-03-04T05:26:05.848Z,94130
2018-03-04T05:26:39.637Z,94133
2018-03-04T05:27:12.198Z,94130
2018-03-04T05:27:44.666Z,94126
2018-03-04T05:28:19.479Z,94128
2018-03-04T05:28:52.963Z,94126
2018-03-04T05:29:26.556Z,94129
2018-03-04T05:29:59.008Z,94124
2018-03-04T05:30:32.896Z,94126
2018-03-04T05:31:06.275Z,94127
2018-03-04T05:31:41.207Z,94128
2018-03-04T05:32:17.568Z,94122
2018-03-04T05:32:50.223Z,94127
2018-03-04T05:33:22.583Z,94118
2018-03-04T05:33:55.658Z,94121
2018-03-04T05:34:28.504Z,94119
2018-03-04T05:35:07.849Z,94126
2018-03-04T05:35:41.951Z,94125
2018-03-04T05:36:14.713Z,94127
2018-03-04T05:36:47.279Z,94127
2018-03-04T05:37:19.736Z,94129
2018-03-04T05:37:52.201Z,94128
2018-03-04T05:38:24.666Z,94129
2018-03-04T05:38:57.124Z,94131
2018-03-04T05:39:29.586Z,94129
2018-03-04T05:40:02.965Z,94129
2018-03-04T05:40:36.252Z,94132
2018-03-04T05:41:10.173Z,94139
2018-03-04T05:41:43.112Z,94132
2018-03-04T05:42:15.576Z,94137
2018-03-04T05:42:48.138Z,94140
2018-03-04T05:43:20.700Z,94134
2018-03-04T05:43:53.166Z,94136
2018-03-04T05:44:26.657Z,94140
2018-03-04T05:44:59.419Z,94137
2018-03-04T05:45:31.881Z,94137
2018-03-04T05:46:04.344Z,94138
2018-03-04T05:46:37.311Z,94140
2018-03-04T05:47:09.669Z,94136
2018-03-04T05:47:43.571Z,94143
2018-03-04T05:48:16.742Z,94143
2018-03-04T05:48:49.099Z,94138
2018-03-04T05:49:21.459Z,94138
2018-03-04T05:49:54.532Z,94139
2018-03-04T05:50:27.406Z,94144
2018-03-04T05:50:59.664Z,94139
2018-03-04T05:51:33.247Z,94143
2018-03-04T05:52:05.925Z,94141
2018-03-04T05:52:38.280Z,94139
2018-03-04T05:53:10.636Z,94146
2018-03-04T05:53:43.809Z,94140
2018-03-04T05:54:54.266Z,94142
2018-03-04T05:55:28.571Z,94141
2018-03-04T05:56:01.746Z,94140
2018-03-04T05:56:34.923Z,94144
2018-03-04T05:57:07.281Z,94140
2018-03-04T05:57:40.460Z,94144
2018-03-04T05:58:12.932Z,94141
2018-03-04T05:58:46.168Z,94137
2018-03-04T05:59:18.971Z,94134
2018-03-04T05:59:51.322Z,94142
2018-03-04T06:00:24.503Z,94140
2018-03-04T06:00:57.578Z,94138
2018-03-04T06:01:30.035Z,94138
2018-03-04T06:02:02.500Z,94138
2018-03-04T06:02:35.679Z,94134
2018-03-04T06:03:08.118Z,94136
2018-03-04T06:03:40.492Z,94137
2018-03-04T06:04:14.484Z,94136
2018-03-04T06:04:47.570Z,94131
2018-03-04T06:05:21.459Z,94136
2018-03-04T06:05:53.795Z,94131
2018-03-04T06:06:26.186Z,94138
2018-03-04T06:06:58.642Z,94133
2018-03-04T06:07:31.580Z,94133
2018-03-04T06:08:03.969Z,94138
2018-03-04T06:08:36.994Z,94135
2018-03-04T06:09:12.479Z,94135
2018-03-04T06:09:46.422Z,94135
2018-03-04T06:10:19.095Z,94130
2018-03-04T06:10:51.404Z,94133
2018-03-04T06:11:28.305Z,94132
2018-03-04T06:12:00.625Z,94131
2018-03-04T06:12:32.982Z,94130
2018-03-04T06:13:05.549Z,94129
2018-03-04T06:13:37.953Z,94135
2018-03-04T06:14:11.188Z,94131
2018-03-04T06:14:44.719Z,94135
2018-03-04T06:15:17.236Z,94135
2018-03-04T06:15:50.611Z,94138
2018-03-04T06:16:24.714Z,94131
2018-03-04T06:16:57.182Z,94130
2018-03-04T06:17:32.930Z,94133
2018-03-04T06:18:06.758Z,94135
2018-03-04T06:18:39.060Z,94137
2018-03-04T06:19:12.042Z,94137
2018-03-04T06:19:45.781Z,94134
2018-03-04T06:20:19.197Z,94135
2018-03-04T06:20:52.446Z,94135
2018-03-04T06:21:29.150Z,94138
2018-03-04T06:22:01.474Z,94137
2018-03-04T06:22:34.582Z,94136
2018-03-04T06:23:07.562Z,94139
2018-03-04T06:23:40.691Z,94137
2018-03-04T06:24:13.808Z,94133
2018-03-04T06:24:46.221Z,94138
2018-03-04T06:25:20.846Z,94138
2018-03-04T06:25:53.897Z,94138
2018-03-04T06:26:26.308Z,94137
2018-03-04T06:26:58.666Z,94135
2018-03-04T06:27:31.950Z,94142
2018-03-04T06:28:04.967Z,94138
2018-03-04T06:28:38.066Z,94137
2018-03-04T06:29:11.418Z,94140
2018-03-04T06:29:43.624Z,94140
2018-03-04T06:30:17.997Z,94141
2018-03-04T06:30:53.282Z,94142
2018-03-04T06:31:27.475Z,94140
2018-03-04T06:32:04.302Z,94144
2018-03-04T06:32:39.970Z,94137
2018-03-04T06:33:13.352Z,94139
2018-03-04T06:33:45.684Z,94144
2018-03-04T06:34:18.057Z,94144
2018-03-04T06:34:52.070Z,94143
2018-03-04T06:35:26.166Z,94143
2018-03-04T06:35:59.330Z,94141
2018-03-04T06:36:32.513Z,94144
2018-03-04T06:37:05.591Z,94140
2018-03-04T06:37:38.870Z,94143
2018-03-04T06:38:13.273Z,94139
2018-03-04T06:38:46.434Z,94140
2018-03-04T06:39:18.800Z,94147
2018-03-04T06:39:53.286Z,94143
2018-03-04T06:40:26.417Z,94142
2018-03-04T06:40:59.353Z,94144
2018-03-04T06:41:32.534Z,94148
2018-03-04T06:42:05.632Z,94148
2018-03-04T06:42:41.258Z,94150
2018-03-04T06:43:14.240Z,94150
2018-03-04T06:43:48.134Z,94150
2018-03-04T06:44:20.679Z,94152
2018-03-04T06:44:52.933Z,94151
2018-03-04T06:45:26.408Z,94147
2018-03-04T06:46:01.029Z,94151
2018-03-04T06:46:34.004Z,94148
2018-03-04T06:47:06.874Z,94149
2018-03-04T06:47:39.144Z,94148
2018-03-04T06:48:12.249Z,94148
2018-03-04T06:48:45.894Z,94151
2018-03-04T06:49:22.298Z,94148
2018-03-04T06:49:56.609Z,94145
2018-03-04T06:50:29.758Z,94141
2018-03-04T06:51:04.258Z,94144
2018-03-04T06:51:38.183Z,94147
2018-03-04T06:52:10.396Z,94146
2018-03-04T06:52:43.863Z,94147
2018-03-04T06:53:18.391Z,94142
2018-03-04T06:53:51.549Z,94148
2018-03-04T06:54:24.664Z,94144
2018-03-04T06:55:02.221Z,94148
2018-03-04T06:55:35.296Z,94144
2018-03-04T06:56:10.339Z,94148
2018-03-04T06:56:43.273Z,94145
2018-03-04T06:57:19.856Z,94147
2018-03-04T06:57:53.218Z,94145
2018-03-04T06:58:27.422Z,94146
2018-03-04T06:58:59.760Z,94148
2018-03-04T07:00:16.690Z,94148
2018-03-04T07:00:51.924Z,94153
2018-03-04T07:01:24.997Z,94147
2018-03-04T07:02:04.029Z,94146
2018-03-04T07:02:36.385Z,94145
2018-03-04T07:03:08.723Z,94143
2018-03-04T07:03:42.842Z,94144
2018-03-04T07:04:16.102Z,94144
2018-03-04T07:04:49.276Z,94143
2018-03-04T07:06:06.509Z,94143
2018-03-04T07:06:38.846Z,94141
2018-03-04T07:07:12.536Z,94143
2018-03-04T07:07:44.821Z,94144
2018-03-04T07:08:18.046Z,94142
2018-03-04T07:08:54.630Z,94142
2018-03-04T07:09:28.195Z,94143
2018-03-04T07:10:01.828Z,94143
2018-03-04T07:11:13.405Z,94149
2018-03-04T07:11:45.950Z,94144
2018-03-04T07:12:19.763Z,94143
2018-03-04T07:12:54.366Z,94146